Time;durP1;ratioP1;P1;durP2;ratioP2;P2;SDS_P1;SDS_P2;PMS_P1;PMS_P2;Temp;Humidity;BMP_temperature;BMP_pressure;BME280_temperature;BME280_humidity;BME280_pressure;Samples;Min_cycle;Max_cycle;Signal;HPM_P1;HPM_P2
2022/10/30 00:00:36;;;;;;;27.55;9.88;;;;;;;;;;5019444;28;89044;-80
2022/10/30 00:03:02;;;;;;;22.38;9.45;;;;;;;;;;5019727;28;90987;-80
2022/10/30 00:05:29;;;;;;;23.33;9.27;;;;;;;;;;5019922;28;90295;-80
2022/10/30 00:07:56;;;;;;;22.23;9.50;;;;;;;;;;5017382;28;89575;-79
2022/10/30 00:10:25;;;;;;;15.85;10.25;;;;;;;;;;5010424;28;88637;-79
2022/10/30 00:12:52;;;;;;;26.23;10.90;;;;;;;;;;5010858;28;90356;-80
2022/10/30 00:15:18;;;;;;;29.58;11.20;;;;;;;;;;5019285;28;91021;-79
2022/10/30 00:17:44;;;;;;;20.85;10.98;;;;;;;;;;5018317;28;90289;-80
2022/10/30 00:20:11;;;;;;;17.48;10.52;;;;;;;;;;5019885;28;89410;-81
2022/10/30 00:22:37;;;;;;;20.92;11.52;;;;;;;;;;5014958;28;90032;-81
2022/10/30 00:25:04;;;;;;;20.55;10.85;;;;;;;;;;4997418;28;89995;-81
2022/10/30 00:27:30;;;;;;;23.95;10.68;;;;;;;;;;5011032;28;90710;-80
2022/10/30 00:29:56;;;;;;;18.83;11.07;;;;;;;;;;5018515;28;90863;-80
2022/10/30 00:32:23;;;;;;;22.70;11.85;;;;;;;;;;5018512;28;89043;-81
2022/10/30 00:34:50;;;;;;;23.25;12.07;;;;;;;;;;5003513;28;89818;-81
2022/10/30 00:37:16;;;;;;;23.63;11.73;;;;;;;;;;5018884;28;89287;-80
2022/10/30 00:39:43;;;;;;;29.50;12.13;;;;;;;;;;5000018;28;89206;-81
2022/10/30 00:42:13;;;;;;;21.15;11.70;;;;;;;;;;4980462;28;90009;-78
2022/10/30 00:44:39;;;;;;;22.10;12.70;;;;;;;;;;4999386;28;91158;-80
2022/10/30 00:47:11;;;;;;;21.58;11.48;;;;;;;;;;4997848;28;88915;-81
2022/10/30 00:49:40;;;;;;;20.75;12.02;;;;;;;;;;4999343;28;89679;-80
2022/10/30 00:52:07;;;;;;;23.02;11.80;;;;;;;;;;4998046;28;90723;-79
2022/10/30 00:54:35;;;;;;;19.60;11.57;;;;;;;;;;4980201;28;89082;-81
2022/10/30 00:57:03;;;;;;;23.35;11.95;;;;;;;;;;5001429;28;91066;-81
2022/10/30 00:59:31;;;;;;;29.95;12.60;;;;;;;;;;4997681;28;89009;-81
2022/10/30 01:01:59;;;;;;;19.58;11.63;;;;;;;;;;5013507;28;89894;-80
2022/10/30 01:04:27;;;;;;;30.95;12.27;;;;;;;;;;5018506;28;89187;-80
2022/10/30 01:06:56;;;;;;;26.02;12.35;;;;;;;;;;4999351;28;91284;-80
2022/10/30 01:09:22;;;;;;;26.77;12.57;;;;;;;;;;5004362;28;91314;-80
2022/10/30 01:11:48;;;;;;;22.38;12.80;;;;;;;;;;4979423;28;91441;-79
2022/10/30 01:14:16;;;;;;;16.48;12.45;;;;;;;;;;4998826;28;91395;-80
2022/10/30 01:16:48;;;;;;;31.40;13.18;;;;;;;;;;5000034;28;92655;-80
2022/10/30 01:19:33;;;;;;;24.35;12.43;;;;;;;;;;5003290;28;92030;-81
2022/10/30 01:21:59;;;;;;;19.08;12.02;;;;;;;;;;4999548;28;91695;-81
2022/10/30 01:24:52;;;;;;;23.23;11.52;;;;;;;;;;4996760;28;91761;-80
2022/10/30 01:27:34;;;;;;;23.45;11.75;;;;;;;;;;4958796;28;91746;-80
2022/10/30 01:30:17;;;;;;;24.30;13.00;;;;;;;;;;4996725;28;91896;-79
2022/10/30 01:33:03;;;;;;;25.45;12.25;;;;;;;;;;4996970;28;92122;-80
2022/10/30 01:35:39;;;;;;;24.27;12.07;;;;;;;;;;4997139;28;89258;-80
2022/10/30 01:38:11;;;;;;;26.80;12.82;;;;;;;;;;4994300;28;90030;-80
2022/10/30 01:40:38;;;;;;;26.90;13.30;;;;;;;;;;4979932;28;91907;-80
2022/10/30 01:43:04;;;;;;;19.52;12.40;;;;;;;;;;4975368;28;93124;-80
2022/10/30 01:45:38;;;;;;;23.55;12.15;;;;;;;;;;4977667;28;89247;-80
2022/10/30 01:48:04;;;;;;;;;;;;;;;;;;4976737;28;90553;-80
2022/10/30 01:50:36;;;;;;;15.18;10.63;;;;;;;;;;4978489;28;92413;-80
2022/10/30 01:53:05;;;;;;;18.60;12.68;;;;;;;;;;4993948;28;89254;-81
2022/10/30 01:55:47;;;;;;;22.35;13.25;;;;;;;;;;4997085;28;88953;-80
2022/10/30 01:58:19;;;;;;;25.17;12.23;;;;;;;;;;4997160;28;90214;-79
2022/10/30 02:00:52;;;;;;;22.38;12.07;;;;;;;;;;4998047;28;90235;-80
2022/10/30 02:03:20;;;;;;;27.20;13.65;;;;;;;;;;4998918;28;91060;-80
2022/10/30 02:05:48;;;;;;;22.75;13.20;;;;;;;;;;4976612;28;92197;-80
2022/10/30 02:08:16;;;;;;;23.98;11.75;;;;;;;;;;4977443;28;89613;-80
2022/10/30 02:10:44;;;;;;;28.38;13.45;;;;;;;;;;4976665;28;92212;-81
2022/10/30 02:13:11;;;;;;;22.30;12.30;;;;;;;;;;4986985;28;90446;-80
2022/10/30 02:15:39;;;;;;;21.27;12.35;;;;;;;;;;4996036;28;90917;-80
2022/10/30 02:18:05;;;;;;;30.33;13.38;;;;;;;;;;4995706;28;93230;-80
2022/10/30 02:20:31;;;;;;;27.20;12.55;;;;;;;;;;4996363;28;91993;-81
2022/10/30 02:22:58;;;;;;;28.95;13.07;;;;;;;;;;4996073;28;91450;-80
2022/10/30 02:25:30;;;;;;;26.40;11.95;;;;;;;;;;5001785;28;90125;-80
2022/10/30 02:27:57;;;;;;;23.70;12.27;;;;;;;;;;4999687;28;91348;-80
2022/10/30 02:30:25;;;;;;;21.48;12.18;;;;;;;;;;5000176;28;92101;-79
2022/10/30 02:32:52;;;;;;;26.15;12.48;;;;;;;;;;4998149;28;91430;-80
2022/10/30 02:35:18;;;;;;;33.50;13.85;;;;;;;;;;4999515;28;89620;-80
2022/10/30 02:37:46;;;;;;;19.05;12.07;;;;;;;;;;4998092;28;89140;-81
2022/10/30 02:40:12;;;;;;;29.88;13.68;;;;;;;;;;4984996;28;90887;-82
2022/10/30 02:42:39;;;;;;;29.20;12.25;;;;;;;;;;4996750;28;90216;-79
2022/10/30 02:45:05;;;;;;;21.20;12.15;;;;;;;;;;4979343;28;90117;-81
2022/10/30 02:47:32;;;;;;;23.88;12.73;;;;;;;;;;4984440;28;89209;-79
2022/10/30 02:49:59;;;;;;;24.92;13.63;;;;;;;;;;4979506;28;91801;-81
2022/10/30 02:52:25;;;;;;;22.92;13.52;;;;;;;;;;4978946;28;90286;-81
2022/10/30 02:54:51;;;;;;;18.77;12.52;;;;;;;;;;4979335;28;90748;-81
2022/10/30 02:57:18;;;;;;;24.02;13.00;;;;;;;;;;4978714;28;89901;-80
2022/10/30 02:59:44;;;;;;;28.13;12.60;;;;;;;;;;4984358;28;92451;-80
2022/10/30 03:02:11;;;;;;;23.23;13.45;;;;;;;;;;5001434;28;88876;-80
2022/10/30 03:04:37;;;;;;;22.95;12.68;;;;;;;;;;5000901;28;89610;-80
2022/10/30 03:07:03;;;;;;;26.00;12.75;;;;;;;;;;4998135;28;91515;-80
2022/10/30 03:09:30;;;;;;;19.90;12.50;;;;;;;;;;5003939;28;88883;-80
2022/10/30 03:11:56;;;;;;;22.88;13.13;;;;;;;;;;4998754;28;89489;-80
2022/10/30 03:14:22;;;;;;;22.05;13.63;;;;;;;;;;4997817;28;89540;-80
2022/10/30 03:16:51;;;;;;;23.65;13.05;;;;;;;;;;4992221;28;91947;-81
2022/10/30 03:19:18;;;;;;;25.20;13.68;;;;;;;;;;4980079;28;89120;-79
2022/10/30 03:21:44;;;;;;;25.33;14.15;;;;;;;;;;4977604;28;91016;-81
2022/10/30 03:24:12;;;;;;;26.23;13.88;;;;;;;;;;4977999;28;91848;-81
2022/10/30 03:26:39;;;;;;;25.63;13.80;;;;;;;;;;4978176;28;91409;-80
2022/10/30 03:29:06;;;;;;;26.30;13.75;;;;;;;;;;4978198;28;90160;-79
2022/10/30 03:31:33;;;;;;;26.33;13.32;;;;;;;;;;4981794;28;90124;-79
2022/10/30 03:34:14;;;;;;;25.67;14.07;;;;;;;;;;4987687;28;91422;-80
2022/10/30 03:36:41;;;;;;;20.75;13.25;;;;;;;;;;4978812;28;91078;-79
2022/10/30 03:39:07;;;;;;;30.35;14.23;;;;;;;;;;4979265;28;90358;-79
2022/10/30 03:41:37;;;;;;;24.30;14.48;;;;;;;;;;4978017;28;91022;-79
2022/10/30 03:44:03;;;;;;;26.98;14.07;;;;;;;;;;4979914;28;90001;-79
2022/10/30 03:46:30;;;;;;;22.92;13.38;;;;;;;;;;4980017;28;89154;-80
2022/10/30 03:49:10;;;;;;;24.15;13.85;;;;;;;;;;4977995;28;90996;-79
2022/10/30 03:51:36;;;;;;;23.58;13.82;;;;;;;;;;4981790;28;93458;-79
2022/10/30 03:54:03;;;;;;;25.38;13.25;;;;;;;;;;4980272;28;89120;-80
2022/10/30 03:56:31;;;;;;;29.65;14.15;;;;;;;;;;4978053;28;92332;-80
2022/10/30 03:58:58;;;;;;;17.52;13.23;;;;;;;;;;4978334;28;91496;-81
2022/10/30 04:01:25;;;;;;;29.38;15.13;;;;;;;;;;4978514;28;90559;-82
2022/10/30 04:03:55;;;;;;;30.15;14.55;;;;;;;;;;4994855;28;90816;-80
2022/10/30 04:06:23;;;;;;;30.38;14.95;;;;;;;;;;4982578;28;92053;-79
2022/10/30 04:08:49;;;;;;;23.33;14.95;;;;;;;;;;4997516;28;90719;-79
2022/10/30 04:11:16;;;;;;;31.00;14.32;;;;;;;;;;4998050;28;91618;-79
2022/10/30 04:13:42;;;;;;;22.90;14.57;;;;;;;;;;5001237;28;92334;-79
2022/10/30 04:16:11;;;;;;;26.02;14.15;;;;;;;;;;4997592;28;92010;-79
2022/10/30 04:18:37;;;;;;;25.00;15.88;;;;;;;;;;4997484;28;90452;-78
2022/10/30 04:21:04;;;;;;;26.40;15.43;;;;;;;;;;4998333;28;90935;-79
2022/10/30 04:23:33;;;;;;;24.52;15.05;;;;;;;;;;4998594;28;91057;-79
2022/10/30 04:26:02;;;;;;;26.23;15.02;;;;;;;;;;4985644;28;91915;-79
2022/10/30 04:28:29;;;;;;;21.98;14.48;;;;;;;;;;4983127;28;89938;-81
2022/10/30 04:30:56;;;;;;;29.23;14.60;;;;;;;;;;4999529;28;89983;-81
2022/10/30 04:33:24;;;;;;;25.92;14.82;;;;;;;;;;4993224;28;92194;-80
2022/10/30 04:35:50;;;;;;;26.90;14.60;;;;;;;;;;5022549;28;89335;-81
2022/10/30 04:38:19;;;;;;;22.92;14.95;;;;;;;;;;5001283;28;91779;-80
2022/10/30 04:40:46;;;;;;;39.20;17.92;;;;;;;;;;5000778;28;91330;-80
2022/10/30 04:43:14;;;;;;;30.15;15.82;;;;;;;;;;4999774;28;91684;-80
2022/10/30 04:45:42;;;;;;;32.60;16.35;;;;;;;;;;4998655;28;90502;-80
2022/10/30 04:48:12;;;;;;;27.35;15.23;;;;;;;;;;5000528;28;91713;-80
2022/10/30 04:50:40;;;;;;;24.90;15.13;;;;;;;;;;5001159;28;91025;-80
2022/10/30 04:53:10;;;;;;;33.50;15.55;;;;;;;;;;5000361;28;92155;-80
2022/10/30 04:55:37;;;;;;;28.80;15.57;;;;;;;;;;5000176;28;90730;-80
2022/10/30 04:58:03;;;;;;;31.88;15.32;;;;;;;;;;5021849;28;89631;-80
2022/10/30 05:00:34;;;;;;;32.90;15.40;;;;;;;;;;4983927;28;92109;-80
2022/10/30 05:03:14;;;;;;;22.88;14.45;;;;;;;;;;4984038;28;90875;-80
2022/10/30 05:05:41;;;;;;;;;;;;;;;;;;4999906;28;89374;-79
2022/10/30 05:08:07;;;;;;;25.75;15.18;;;;;;;;;;5002842;28;91246;-79
2022/10/30 05:10:37;;;;;;;26.33;14.63;;;;;;;;;;5000207;28;89124;-79
2022/10/30 05:13:03;;;;;;;28.25;16.02;;;;;;;;;;4999315;28;91252;-79
2022/10/30 05:15:30;;;;;;;34.58;15.88;;;;;;;;;;4997637;28;89584;-79
2022/10/30 05:17:56;;;;;;;36.00;17.85;;;;;;;;;;5000237;28;92598;-79
2022/10/30 05:20:23;;;;;;;30.58;16.52;;;;;;;;;;5021127;28;89526;-79
2022/10/30 05:22:56;;;;;;;22.05;16.17;;;;;;;;;;5018485;28;89859;-79
2022/10/30 05:25:23;;;;;;;33.80;15.77;;;;;;;;;;4999696;28;91936;-79
2022/10/30 05:27:50;;;;;;;24.98;15.48;;;;;;;;;;4999311;28;90288;-79
2022/10/30 05:30:17;;;;;;;28.67;14.98;;;;;;;;;;5002183;28;90880;-80
2022/10/30 05:32:44;;;;;;;37.63;16.67;;;;;;;;;;4998202;28;89097;-79
2022/10/30 05:35:11;;;;;;;33.65;16.88;;;;;;;;;;4997651;28;89818;-79
2022/10/30 05:37:37;;;;;;;30.50;16.98;;;;;;;;;;4980579;28;92564;-80
2022/10/30 05:40:04;;;;;;;29.40;16.92;;;;;;;;;;4998162;28;89416;-79
2022/10/30 05:42:30;;;;;;;33.47;17.73;;;;;;;;;;4982994;28;90144;-79
2022/10/30 05:45:01;;;;;;;29.15;16.67;;;;;;;;;;4980087;28;90287;-80
2022/10/30 05:47:32;;;;;;;37.00;17.02;;;;;;;;;;4980466;28;88969;-79
2022/10/30 05:49:59;;;;;;;31.95;16.85;;;;;;;;;;4979464;28;91999;-79
2022/10/30 05:52:28;;;;;;;30.90;16.85;;;;;;;;;;4979769;28;91084;-79
2022/10/30 05:54:55;;;;;;;34.35;16.88;;;;;;;;;;4978821;28;90212;-79
2022/10/30 05:57:44;;;;;;;35.22;17.80;;;;;;;;;;4987785;28;90703;-79
2022/10/30 06:00:11;;;;;;;36.38;19.40;;;;;;;;;;5019427;28;89205;-80
2022/10/30 06:02:43;;;;;;;31.45;17.70;;;;;;;;;;5003135;28;89002;-80
2022/10/30 06:05:11;;;;;;;36.15;19.80;;;;;;;;;;4983597;28;91866;-81
2022/10/30 06:07:38;;;;;;;38.05;19.08;;;;;;;;;;4996222;28;89160;-81
2022/10/30 06:10:05;;;;;;;28.70;18.50;;;;;;;;;;4988903;28;91869;-82
2022/10/30 06:13:04;;;;;;;36.22;19.45;;;;;;;;;;4985341;28;92012;-78
2022/10/30 06:15:37;;;;;;;40.75;19.15;;;;;;;;;;4983180;28;89675;-78
2022/10/30 06:18:04;;;;;;;28.48;18.55;;;;;;;;;;4982616;28;92564;-79
2022/10/30 06:20:38;;;;;;;34.90;19.52;;;;;;;;;;4983735;28;90396;-79
2022/10/30 06:23:23;;;;;;;35.88;18.88;;;;;;;;;;5008872;28;89010;-78
2022/10/30 06:26:03;;;;;;;36.30;18.48;;;;;;;;;;5000825;28;92333;-78
2022/10/30 06:28:34;;;;;;;35.78;16.67;;;;;;;;;;5010524;28;89695;-78
2022/10/30 06:31:01;;;;;;;29.70;15.65;;;;;;;;;;4989365;28;92771;-82
2022/10/30 06:33:29;;;;;;;28.85;14.32;;;;;;;;;;4998481;28;90891;-81
2022/10/30 06:35:56;;;;;;;31.58;17.35;;;;;;;;;;4989608;28;91328;-81
2022/10/30 06:38:23;;;;;;;32.38;15.38;;;;;;;;;;5000707;28;91771;-78
2022/10/30 06:40:50;;;;;;;28.33;17.55;;;;;;;;;;5000287;28;91024;-79
2022/10/30 06:43:35;;;;;;;28.80;16.40;;;;;;;;;;5020272;28;88893;-77
2022/10/30 06:46:22;;;;;;;25.33;17.67;;;;;;;;;;5001231;28;89882;-77
2022/10/30 06:48:56;;;;;;;27.73;16.75;;;;;;;;;;5005294;28;91995;-78
2022/10/30 06:51:22;;;;;;;32.40;19.17;;;;;;;;;;5001902;28;90872;-78
2022/10/30 06:53:58;;;;;;;31.33;17.20;;;;;;;;;;5020631;28;90562;-77
2022/10/30 06:56:36;;;;;;;26.48;17.00;;;;;;;;;;5017063;28;92991;-77
2022/10/30 06:59:21;;;;;;;30.50;16.80;;;;;;;;;;5015249;28;91701;-77
2022/10/30 07:01:55;;;;;;;;;;;;;;;;;;5000284;28;93206;-77
2022/10/30 07:04:32;;;;;;;28.88;16.70;;;;;;;;;;5001513;28;95485;-77
2022/10/30 07:06:58;;;;;;;28.52;17.52;;;;;;;;;;4997285;28;95184;-77
2022/10/30 07:09:25;;;;;;;26.45;16.95;;;;;;;;;;4998034;28;97636;-78
2022/10/30 07:11:51;;;;;;;30.58;18.10;;;;;;;;;;5002144;28;95650;-79
2022/10/30 07:14:44;;;;;;;33.40;17.77;;;;;;;;;;4998871;28;95462;-77
2022/10/30 07:17:23;;;;;;;34.53;17.05;;;;;;;;;;4998513;28;95200;-77
2022/10/30 07:19:56;;;;;;;30.10;18.27;;;;;;;;;;4997966;28;93177;-76
2022/10/30 07:22:23;;;;;;;29.48;17.00;;;;;;;;;;4998821;28;93947;-77
2022/10/30 07:24:52;;;;;;;26.60;17.17;;;;;;;;;;4999021;28;93341;-79
2022/10/30 07:27:52;;;;;;;20.60;13.95;;;;;;;;;;4992574;28;92429;-78
2022/10/30 07:30:31;;;;;;;30.73;14.10;;;;;;;;;;4984466;28;95693;-77
2022/10/30 07:33:13;;;;;;;26.20;15.10;;;;;;;;;;4978897;28;97734;-77
2022/10/30 07:35:59;;;;;;;31.98;15.68;;;;;;;;;;4981478;28;92637;-77
2022/10/30 07:38:36;;;;;;;28.42;16.83;;;;;;;;;;4992413;28;94137;-77
2022/10/30 07:41:19;;;;;;;33.55;16.88;;;;;;;;;;4995290;28;92548;-77
2022/10/30 07:43:48;;;;;;;31.17;16.83;;;;;;;;;;4998461;28;95311;-77
2022/10/30 07:46:33;;;;;;;30.75;16.67;;;;;;;;;;5016359;28;92544;-77
2022/10/30 07:49:22;;;;;;;28.00;17.50;;;;;;;;;;5003982;28;92702;-78
2022/10/30 07:52:03;;;;;;;28.38;16.88;;;;;;;;;;4997104;28;94047;-78
2022/10/30 07:54:29;;;;;;;27.42;16.55;;;;;;;;;;4978547;28;95367;-77
2022/10/30 07:57:03;;;;;;;33.25;17.02;;;;;;;;;;4978832;28;92356;-77
2022/10/30 07:59:52;;;;;;;26.27;16.05;;;;;;;;;;4996628;28;94817;-77
2022/10/30 08:02:38;;;;;;;25.13;16.23;;;;;;;;;;4996390;28;92719;-77
2022/10/30 08:05:21;;;;;;;27.48;17.08;;;;;;;;;;4978768;28;95137;-77
2022/10/30 08:08:02;;;;;;;25.30;16.23;;;;;;;;;;4979508;28;94631;-76
2022/10/30 08:10:29;;;;;;;23.75;17.17;;;;;;;;;;4996245;28;92550;-76
2022/10/30 08:12:57;;;;;;;29.40;15.50;;;;;;;;;;4998679;28;95444;-78
2022/10/30 08:15:24;;;;;;;32.30;19.02;;;;;;;;;;4998403;28;93688;-78
2022/10/30 08:17:50;;;;;;;24.95;16.30;;;;;;;;;;4984917;28;92389;-77
2022/10/30 08:20:18;;;;;;;29.80;16.73;;;;;;;;;;5019184;28;93253;-76
2022/10/30 08:22:45;;;;;;;25.17;15.10;;;;;;;;;;4997423;28;92512;-76
2022/10/30 08:25:11;;;;;;;24.98;15.10;;;;;;;;;;5014180;28;94826;-77
2022/10/30 08:27:39;;;;;;;30.45;14.52;;;;;;;;;;4997637;28;95549;-77
2022/10/30 08:30:05;;;;;;;25.90;14.85;;;;;;;;;;4994097;28;92594;-77
2022/10/30 08:32:32;;;;;;;25.42;14.70;;;;;;;;;;4984814;28;95200;-77
2022/10/30 08:35:21;;;;;;;22.45;14.20;;;;;;;;;;5000609;28;92694;-77
2022/10/30 08:37:48;;;;;;;31.88;15.88;;;;;;;;;;4983713;28;92583;-76
2022/10/30 08:40:14;;;;;;;23.50;15.05;;;;;;;;;;4997542;28;95882;-77
2022/10/30 08:42:54;;;;;;;32.97;16.20;;;;;;;;;;5001427;28;93650;-77
2022/10/30 08:45:23;;;;;;;26.63;14.13;;;;;;;;;;4997682;28;93003;-76
2022/10/30 08:48:12;;;;;;;34.97;14.68;;;;;;;;;;4980154;28;95219;-77
2022/10/30 08:50:41;;;;;;;25.35;15.07;;;;;;;;;;4995719;28;94946;-77
2022/10/30 08:53:12;;;;;;;26.95;14.63;;;;;;;;;;5015886;28;95259;-78
2022/10/30 08:55:38;;;;;;;26.27;15.25;;;;;;;;;;4998044;28;94532;-77
2022/10/30 08:58:23;;;;;;;25.00;15.20;;;;;;;;;;4979404;28;92549;-77
2022/10/30 09:00:50;;;;;;;23.50;14.20;;;;;;;;;;4966840;28;95283;-77
2022/10/30 09:03:43;;;;;;;21.48;14.25;;;;;;;;;;4997445;28;92679;-77
2022/10/30 09:06:25;;;;;;;24.63;14.30;;;;;;;;;;5000675;28;92784;-77
2022/10/30 09:09:24;;;;;;;25.73;13.75;;;;;;;;;;4978464;28;92375;-77
2022/10/30 09:11:54;;;;;;;24.38;14.20;;;;;;;;;;4993779;28;93114;-78
2022/10/30 09:14:21;;;;;;;21.77;13.85;;;;;;;;;;4998018;28;95500;-77
2022/10/30 09:16:48;;;;;;;28.13;14.50;;;;;;;;;;4995810;28;96781;-77
2022/10/30 09:19:17;;;;;;;23.33;14.27;;;;;;;;;;4996907;28;92812;-77
2022/10/30 09:21:45;;;;;;;18.88;13.35;;;;;;;;;;4997883;28;93159;-79
2022/10/30 09:24:12;;;;;;;16.48;12.93;;;;;;;;;;4989994;28;94993;-77
2022/10/30 09:26:38;;;;;;;20.95;13.75;;;;;;;;;;5014511;28;92498;-76
2022/10/30 09:29:11;;;;;;;29.65;13.18;;;;;;;;;;5000398;28;95350;-76
2022/10/30 09:31:38;;;;;;;32.75;13.75;;;;;;;;;;5015167;28;92444;-76
2022/10/30 09:34:07;;;;;;;21.80;12.90;;;;;;;;;;4996603;28;94961;-76
2022/10/30 09:36:46;;;;;;;22.00;13.20;;;;;;;;;;4997080;28;94152;-76
2022/10/30 09:39:12;;;;;;;29.33;13.98;;;;;;;;;;4992753;28;96056;-76
2022/10/30 09:42:03;;;;;;;34.85;16.15;;;;;;;;;;4990286;28;94814;-76
2022/10/30 09:44:39;;;;;;;21.55;13.52;;;;;;;;;;4981464;28;95646;-76
2022/10/30 09:47:07;;;;;;;26.23;12.70;;;;;;;;;;4996437;28;92478;-75
2022/10/30 09:49:34;;;;;;;28.42;13.25;;;;;;;;;;4984390;28;95251;-76
2022/10/30 09:52:13;;;;;;;25.75;13.35;;;;;;;;;;4999698;28;95986;-79
2022/10/30 09:54:58;;;;;;;30.67;13.98;;;;;;;;;;4997040;28;92325;-77
2022/10/30 09:57:48;;;;;;;23.20;13.02;;;;;;;;;;4997199;28;95924;-75
2022/10/30 10:00:17;;;;;;;23.08;11.98;;;;;;;;;;4997423;28;92419;-77
2022/10/30 10:02:46;;;;;;;33.92;13.05;;;;;;;;;;5014464;28;92272;-77
2022/10/30 10:05:17;;;;;;;25.38;12.75;;;;;;;;;;5015221;28;93883;-77
2022/10/30 10:08:13;;;;;;;24.85;13.07;;;;;;;;;;5011884;28;94730;-76
2022/10/30 10:11:01;;;;;;;21.20;13.10;;;;;;;;;;5012236;28;94821;-80
2022/10/30 10:13:31;;;;;;;16.67;12.30;;;;;;;;;;5013888;28;93500;-80
2022/10/30 10:16:02;;;;;;;19.50;13.32;;;;;;;;;;5016827;28;92449;-81
2022/10/30 10:18:38;;;;;;;22.60;14.18;;;;;;;;;;5014952;28;94221;-78
2022/10/30 10:21:09;;;;;;;21.48;13.98;;;;;;;;;;5014808;28;93068;-79
2022/10/30 10:23:43;;;;;;;25.67;13.25;;;;;;;;;;5013011;28;93400;-79
2022/10/30 10:26:24;;;;;;;28.52;12.10;;;;;;;;;;5015202;28;93418;-79
2022/10/30 10:28:58;;;;;;;26.92;13.02;;;;;;;;;;5015043;28;92505;-79
2022/10/30 10:31:32;;;;;;;27.08;12.25;;;;;;;;;;5014161;28;92854;-77
2022/10/30 10:34:12;;;;;;;27.48;12.93;;;;;;;;;;5012647;28;95733;-79
2022/10/30 10:36:38;;;;;;;20.85;12.07;;;;;;;;;;5016113;28;92539;-80
2022/10/30 10:39:12;;;;;;;26.80;12.02;;;;;;;;;;5013589;28;93194;-79
2022/10/30 10:42:01;;;;;;;27.77;12.27;;;;;;;;;;5015118;28;92513;-82
2022/10/30 10:44:49;;;;;;;23.55;12.20;;;;;;;;;;5015658;28;94011;-82
2022/10/30 10:47:31;;;;;;;25.27;12.25;;;;;;;;;;5017914;28;93282;-82
2022/10/30 10:50:04;;;;;;;27.13;10.93;;;;;;;;;;5018299;28;92341;-84
2022/10/30 10:52:39;;;;;;;24.20;11.18;;;;;;;;;;5018524;28;92889;-84
2022/10/30 10:55:13;;;;;;;23.67;10.75;;;;;;;;;;5019266;28;93048;-85
2022/10/30 10:57:39;;;;;;;22.85;10.13;;;;;;;;;;5019807;28;92431;-85
2022/10/30 11:00:12;;;;;;;24.20;9.90;;;;;;;;;;5021601;28;94876;-90
2022/10/30 11:02:38;;;;;;;;;;;;;;;;;;5019468;28;92272;-82
2022/10/30 11:05:06;;;;;;;16.88;9.38;;;;;;;;;;5018736;28;123012;-84
2022/10/30 11:07:37;;;;;;;26.30;10.18;;;;;;;;;;5013118;28;94224;-85
2022/10/30 11:10:10;;;;;;;20.45;11.05;;;;;;;;;;5017483;28;92416;-85
2022/10/30 11:12:36;;;;;;;27.23;11.52;;;;;;;;;;5016830;28;92953;-84
2022/10/30 11:15:26;;;;;;;21.10;11.07;;;;;;;;;;5015620;28;94094;-82
2022/10/30 11:18:03;;;;;;;32.20;10.38;;;;;;;;;;4987739;28;91666;-82
2022/10/30 11:20:47;;;;;;;20.67;10.75;;;;;;;;;;5016274;28;92833;-83
2022/10/30 11:23:29;;;;;;;32.85;12.13;;;;;;;;;;5020828;28;94306;-82
2022/10/30 11:25:55;;;;;;;23.02;11.52;;;;;;;;;;4975453;28;94828;-83
2022/10/30 11:28:34;;;;;;;33.63;11.75;;;;;;;;;;4978000;28;94006;-83
2022/10/30 11:31:15;;;;;;;23.48;11.32;;;;;;;;;;4977650;28;92423;-83
2022/10/30 11:33:42;;;;;;;24.63;11.27;;;;;;;;;;4971985;28;94189;-83
2022/10/30 11:36:09;;;;;;;34.63;12.18;;;;;;;;;;4966612;28;94193;-83
2022/10/30 11:38:41;;;;;;;23.63;11.70;;;;;;;;;;4977230;28;92332;-84
2022/10/30 11:41:09;;;;;;;23.52;11.30;;;;;;;;;;4960492;28;93021;-81
2022/10/30 11:43:36;;;;;;;25.23;11.20;;;;;;;;;;4957515;28;93300;-83
2022/10/30 11:46:08;;;;;;;23.88;11.30;;;;;;;;;;4966590;28;92412;-83
2022/10/30 11:48:36;;;;;;;27.13;11.18;;;;;;;;;;4976815;28;92500;-83
2022/10/30 11:51:03;;;;;;;29.42;11.23;;;;;;;;;;4957436;28;95941;-83
2022/10/30 11:53:35;;;;;;;19.67;11.55;;;;;;;;;;4972157;28;96430;-83
2022/10/30 11:56:03;;;;;;;22.85;10.40;;;;;;;;;;4976393;28;93155;-83
2022/10/30 11:58:31;;;;;;;29.63;11.15;;;;;;;;;;4977867;28;92817;-82
2022/10/30 12:00:59;;;;;;;26.73;10.88;;;;;;;;;;4976972;28;92961;-84
2022/10/30 12:03:33;;;;;;;28.25;11.25;;;;;;;;;;4970112;28;94114;-81
2022/10/30 12:06:05;;;;;;;20.80;11.00;;;;;;;;;;4957820;28;92420;-80
2022/10/30 12:08:32;;;;;;;;;;;;;;;;;;4960195;28;93044;-80
2022/10/30 12:11:00;;;;;;;27.27;10.85;;;;;;;;;;4958251;28;120423;-84
2022/10/30 12:13:30;;;;;;;27.33;12.07;;;;;;;;;;4958143;28;92680;-85
2022/10/30 12:16:17;;;;;;;19.27;10.07;;;;;;;;;;4956421;28;96539;-84
2022/10/30 12:18:58;;;;;;;24.98;11.40;;;;;;;;;;4958038;28;92428;-84
2022/10/30 12:21:25;;;;;;;24.02;12.07;;;;;;;;;;4957489;28;93996;-84
2022/10/30 12:23:57;;;;;;;22.23;10.90;;;;;;;;;;4965337;28;93056;-84
2022/10/30 12:26:24;;;;;;;25.67;11.30;;;;;;;;;;4997298;28;92455;-83
2022/10/30 12:29:01;;;;;;;25.48;12.00;;;;;;;;;;5001230;28;94080;-84
2022/10/30 12:31:31;;;;;;;22.05;10.80;;;;;;;;;;5001664;28;93102;-85
2022/10/30 12:34:05;;;;;;;26.25;11.48;;;;;;;;;;5002075;28;94277;-82
2022/10/30 12:36:34;;;;;;;19.60;10.43;;;;;;;;;;4996909;28;94302;-82
2022/10/30 12:39:11;;;;;;;20.83;10.45;;;;;;;;;;4997525;28;92386;-84
2022/10/30 12:41:50;;;;;;;25.17;10.07;;;;;;;;;;4995825;28;95111;-84
2022/10/30 12:44:21;;;;;;;28.45;11.13;;;;;;;;;;4995900;28;94210;-83
2022/10/30 12:46:50;;;;;;;24.92;11.15;;;;;;;;;;4996400;28;93162;-83
2022/10/30 12:49:22;;;;;;;20.48;10.85;;;;;;;;;;4997531;28;94162;-83
2022/10/30 12:51:51;;;;;;;23.90;10.67;;;;;;;;;;4999368;28;94338;-82
2022/10/30 12:54:23;;;;;;;20.77;10.32;;;;;;;;;;4997502;28;93843;-83
2022/10/30 12:56:53;;;;;;;19.83;9.38;;;;;;;;;;4996264;28;94524;-82
2022/10/30 12:59:40;;;;;;;25.08;10.38;;;;;;;;;;4996907;28;92168;-83
2022/10/30 13:02:18;;;;;;;26.92;9.88;;;;;;;;;;4997354;28;92443;-81
2022/10/30 13:04:47;;;;;;;26.25;10.65;;;;;;;;;;4996651;28;94284;-81
2022/10/30 13:07:16;;;;;;;21.42;10.90;;;;;;;;;;4994091;28;94949;-84
2022/10/30 13:09:42;;;;;;;23.65;9.88;;;;;;;;;;5014957;28;96362;-82
2022/10/30 13:12:15;;;;;;;20.48;9.07;;;;;;;;;;5016650;28;94469;-83
2022/10/30 13:14:51;;;;;;;20.08;9.20;;;;;;;;;;5021973;28;92419;-84
2022/10/30 13:17:17;;;;;;;29.10;10.63;;;;;;;;;;5018100;28;94133;-83
2022/10/30 13:19:44;;;;;;;22.45;10.15;;;;;;;;;;5016344;28;92911;-83
2022/10/30 13:22:14;;;;;;;24.23;10.07;;;;;;;;;;5016499;28;93262;-82
2022/10/30 13:24:46;;;;;;;18.50;8.75;;;;;;;;;;5016145;28;93467;-83
2022/10/30 13:27:39;;;;;;;22.85;9.90;;;;;;;;;;5016600;28;92542;-83
2022/10/30 13:30:18;;;;;;;20.67;10.30;;;;;;;;;;5017189;28;92279;-85
2022/10/30 13:32:56;;;;;;;24.20;9.10;;;;;;;;;;5013456;28;95830;-84
2022/10/30 13:35:26;;;;;;;15.73;8.68;;;;;;;;;;5017547;28;92409;-87
2022/10/30 13:38:01;;;;;;;15.82;9.63;;;;;;;;;;5020463;28;94051;-83
2022/10/30 13:40:34;;;;;;;22.08;9.05;;;;;;;;;;5012428;28;92518;-83
2022/10/30 13:43:06;;;;;;;26.35;9.65;;;;;;;;;;5016882;28;93886;-82
2022/10/30 13:45:44;;;;;;;21.30;9.90;;;;;;;;;;5016882;28;93998;-84
2022/10/30 13:48:20;;;;;;;23.35;9.85;;;;;;;;;;5016529;28;92382;-83
2022/10/30 13:51:01;;;;;;;22.67;9.85;;;;;;;;;;5016334;28;93515;-84
2022/10/30 13:53:28;;;;;;;22.25;9.60;;;;;;;;;;4995958;28;94163;-85
2022/10/30 13:55:55;;;;;;;15.73;9.77;;;;;;;;;;4996923;28;92499;-89
2022/10/30 13:58:27;;;;;;;30.33;10.35;;;;;;;;;;4999769;28;94924;-85
2022/10/30 14:01:03;;;;;;;17.60;9.48;;;;;;;;;;5017581;28;93752;-86
2022/10/30 14:03:38;;;;;;;18.40;10.65;;;;;;;;;;5017195;28;94985;-86
2022/10/30 14:06:05;;;;;;;21.83;10.73;;;;;;;;;;5023016;28;93542;-83
2022/10/30 14:08:34;;;;;;;23.23;11.90;;;;;;;;;;5021509;28;92259;-84
2022/10/30 14:11:03;;;;;;;29.20;11.32;;;;;;;;;;5019651;28;93880;-83
2022/10/30 14:13:48;;;;;;;22.88;11.38;;;;;;;;;;5017136;28;93236;-84
2022/10/30 14:16:30;;;;;;;21.08;10.10;;;;;;;;;;5017652;28;91850;-84
2022/10/30 14:19:00;;;;;;;17.53;10.53;;;;;;;;;;5017814;28;93000;-83
2022/10/30 14:21:40;;;;;;;23.02;10.98;;;;;;;;;;5018867;28;92331;-83
2022/10/30 14:24:11;;;;;;;21.20;12.23;;;;;;;;;;5020613;28;94801;-86
2022/10/30 14:26:39;;;;;;;34.65;12.30;;;;;;;;;;5019916;28;94219;-85
2022/10/30 14:29:25;;;;;;;25.23;12.32;;;;;;;;;;5018696;28;92441;-83
2022/10/30 14:31:51;;;;;;;29.70;12.20;;;;;;;;;;5019473;28;93971;-84
2022/10/30 14:34:37;;;;;;;23.48;11.40;;;;;;;;;;5019741;28;94340;-84
2022/10/30 14:37:03;;;;;;;19.08;12.85;;;;;;;;;;5018181;28;92667;-84
2022/10/30 14:39:36;;;;;;;25.58;13.30;;;;;;;;;;5015764;28;93078;-84
2022/10/30 14:42:05;;;;;;;25.15;13.65;;;;;;;;;;4999054;28;92489;-83
2022/10/30 14:44:45;;;;;;;25.23;12.27;;;;;;;;;;5001400;28;92388;-82